Time;durP1;ratioP1;P1;durP2;ratioP2;P2;SDS_P1;SDS_P2;PMS_P1;PMS_P2;Temp;Humidity;BMP_temperature;BMP_pressure;BME280_temperature;BME280_humidity;BME280_pressure;Samples;Min_cycle;Max_cycle;Signal;HPM_P1;HPM_P2
2021/05/25 00:01:17;;;;;;;7.53;6.43;;;9.70;99.90;;;;;;5046630;28;20049;-49
2021/05/25 00:03:43;;;;;;;7.13;6.40;;;9.70;99.90;;;;;;5050663;28;20044;-49
2021/05/25 00:06:10;;;;;;;8.10;6.72;;;9.60;99.90;;;;;;5047787;28;20049;-48
2021/05/25 00:08:38;;;;;;;7.53;5.75;;;9.60;99.90;;;;;;5046426;28;20056;-49
2021/05/25 00:11:07;;;;;;;6.30;5.05;;;9.60;99.90;;;;;;5048079;28;20155;-49
2021/05/25 00:13:35;;;;;;;6.13;5.25;;;9.50;99.90;;;;;;5047610;28;20417;-48
2021/05/25 00:16:01;;;;;;;5.70;5.10;;;9.60;99.90;;;;;;5047516;28;20044;-49
2021/05/25 00:18:28;;;;;;;5.80;4.75;;;9.50;99.90;;;;;;5045030;28;20040;-48
2021/05/25 00:20:56;;;;;;;6.57;5.25;;;9.50;99.90;;;;;;5046785;28;20099;-46
2021/05/25 00:23:22;;;;;;;6.10;4.95;;;9.50;99.90;;;;;;5046295;28;20049;-47
2021/05/25 00:25:48;;;;;;;7.55;4.93;;;9.50;99.90;;;;;;5042879;28;20079;-49
2021/05/25 00:28:16;;;;;;;7.13;4.53;;;9.50;99.90;;;;;;5025154;28;20045;-48
2021/05/25 00:30:42;;;;;;;5.20;4.40;;;9.50;99.90;;;;;;5046808;28;20045;-52
2021/05/25 00:33:08;;;;;;;5.80;5.18;;;9.50;99.90;;;;;;5046485;28;20059;-49
2021/05/25 00:35:39;;;;;;;6.88;5.22;;;9.50;99.90;;;;;;5047004;28;20104;-47
2021/05/25 00:38:05;;;;;;;8.45;5.53;;;9.50;99.90;;;;;;5046235;28;20143;-48
2021/05/25 00:40:34;;;;;;;6.05;4.90;;;9.60;99.90;;;;;;5046990;28;20049;-49
2021/05/25 00:43:00;;;;;;;7.15;5.07;;;9.60;99.90;;;;;;5046232;28;20049;-49
2021/05/25 00:45:28;;;;;;;5.13;4.57;;;9.60;99.90;;;;;;5046840;28;20049;-48
2021/05/25 00:47:54;;;;;;;5.95;5.15;;;9.50;99.90;;;;;;5046928;28;20060;-46
2021/05/25 00:50:26;;;;;;;8.20;5.50;;;9.50;99.90;;;;;;5047998;28;20051;-49
2021/05/25 00:52:55;;;;;;;5.97;5.38;;;9.50;99.90;;;;;;5046430;28;20473;-48
2021/05/25 00:55:30;;;;;;;6.90;5.90;;;9.50;99.90;;;;;;5046272;28;20875;-48
2021/05/25 00:58:06;;;;;;;7.50;5.80;;;9.50;99.90;;;;;;5047009;28;20401;-49
2021/05/25 01:00:38;;;;;;;6.70;5.77;;;9.50;99.90;;;;;;5043640;28;20208;-49
2021/05/25 01:03:06;;;;;;;8.77;6.38;;;9.50;99.90;;;;;;5046059;28;20307;-47
2021/05/25 01:05:33;;;;;;;7.93;6.80;;;9.50;99.90;;;;;;5046420;28;20053;-49
2021/05/25 01:07:59;;;;;;;7.10;6.43;;;9.50;99.90;;;;;;5045877;28;20049;-47
2021/05/25 01:10:32;;;;;;;9.18;7.10;;;9.60;99.90;;;;;;5047073;28;20048;-48
2021/05/25 01:13:13;;;;;;;8.38;7.57;;;9.60;99.90;;;;;;5049532;28;20533;-48
2021/05/25 01:15:39;;;;;;;11.32;7.55;;;9.60;99.90;;;;;;5044153;28;20060;-52
2021/05/25 01:18:06;;;;;;;9.32;8.20;;;9.60;99.90;;;;;;5047726;28;20060;-49
2021/05/25 01:20:35;;;;;;;9.15;7.88;;;9.60;99.90;;;;;;5044294;28;20102;-48
2021/05/25 01:23:06;;;;;;;9.85;8.43;;;9.60;99.90;;;;;;5023086;28;20075;-50
2021/05/25 01:25:33;;;;;;;8.95;8.00;;;9.60;99.90;;;;;;5049905;28;20136;-50
2021/05/25 01:28:05;;;;;;;11.73;9.20;;;9.60;99.90;;;;;;5049776;28;20067;-49
2021/05/25 01:30:54;;;;;;;9.13;7.80;;;9.70;99.90;;;;;;5046911;28;20585;-48
2021/05/25 01:33:23;;;;;;;10.15;8.77;;;9.60;99.90;;;;;;5049576;28;20060;-50
2021/05/25 01:35:50;;;;;;;10.15;8.65;;;9.60;99.90;;;;;;5025075;28;20551;-50
2021/05/25 01:38:23;;;;;;;9.75;8.50;;;9.60;99.90;;;;;;5053920;28;20048;-49
2021/05/25 01:40:57;;;;;;;11.07;9.70;;;9.70;99.90;;;;;;5049300;28;20083;-53
2021/05/25 01:43:25;;;;;;;10.93;9.85;;;9.70;99.90;;;;;;5054577;28;20465;-48
2021/05/25 01:45:51;;;;;;;10.73;9.50;;;9.70;99.90;;;;;;5049540;28;20738;-52
2021/05/25 01:48:18;;;;;;;10.82;9.43;;;9.70;99.90;;;;;;5049422;28;20080;-51
2021/05/25 01:50:44;;;;;;;12.20;10.63;;;9.70;99.90;;;;;;5050104;28;20512;-50
2021/05/25 01:53:16;;;;;;;11.55;9.95;;;9.70;99.90;;;;;;5050539;28;20068;-51
2021/05/25 01:55:42;;;;;;;;;;;9.70;99.90;;;;;;5050612;28;20049;-50
2021/05/25 01:58:33;;;;;;;11.38;10.07;;;9.70;99.90;;;;;;5049668;28;19955;-53
2021/05/25 02:01:08;;;;;;;11.55;9.68;;;9.70;99.90;;;;;;5048782;28;20102;-53
2021/05/25 02:03:37;;;;;;;14.77;11.30;;;9.70;99.90;;;;;;5049757;28;20052;-54
2021/05/25 02:06:05;;;;;;;14.43;12.38;;;9.60;99.90;;;;;;5049461;28;20041;-48
2021/05/25 02:08:32;;;;;;;13.98;12.38;;;9.70;99.90;;;;;;5049884;28;20063;-51
2021/05/25 02:11:00;;;;;;;14.30;12.73;;;9.60;99.90;;;;;;5046149;28;20497;-50
2021/05/25 02:13:29;;;;;;;16.30;12.88;;;9.70;99.90;;;;;;5049116;28;20056;-50
2021/05/25 02:16:00;;;;;;;15.88;13.68;;;9.60;99.90;;;;;;5048738;28;20079;-51
2021/05/25 02:18:29;;;;;;;16.02;14.32;;;9.70;99.90;;;;;;5048720;28;20501;-51
2021/05/25 02:20:57;;;;;;;16.02;14.27;;;9.70;99.90;;;;;;5046688;28;20053;-51
2021/05/25 02:23:24;;;;;;;19.80;15.70;;;9.70;99.90;;;;;;5023930;28;20053;-52
2021/05/25 02:25:51;;;;;;;17.77;15.65;;;9.70;99.90;;;;;;5024941;28;20459;-48
2021/05/25 02:28:18;;;;;;;20.88;16.15;;;9.60;99.90;;;;;;5017158;28;20073;-53
2021/05/25 02:30:45;;;;;;;17.88;15.45;;;9.60;99.90;;;;;;5025291;28;20053;-53
2021/05/25 02:33:14;;;;;;;21.80;16.20;;;9.60;99.90;;;;;;5020044;28;20049;-53
2021/05/25 02:35:42;;;;;;;17.60;15.70;;;9.60;99.90;;;;;;5017773;28;20046;-52
2021/05/25 02:38:10;;;;;;;20.10;17.40;;;9.60;99.90;;;;;;5019168;28;20128;-51
2021/05/25 02:40:37;;;;;;;21.05;17.40;;;9.60;99.90;;;;;;5015200;28;20041;-50
2021/05/25 02:43:04;;;;;;;20.42;17.88;;;9.60;99.90;;;;;;5023383;28;20387;-49
2021/05/25 02:45:31;;;;;;;19.88;17.77;;;9.60;99.90;;;;;;5028064;28;20042;-48
2021/05/25 02:47:57;;;;;;;20.80;17.30;;;9.50;99.90;;;;;;5027839;28;20395;-48
2021/05/25 02:50:25;;;;;;;22.13;19.83;;;9.50;99.90;;;;;;5004157;28;20073;-49
2021/05/25 02:52:52;;;;;;;21.98;19.63;;;9.50;99.90;;;;;;5022861;28;20064;-51
2021/05/25 02:55:22;;;;;;;22.70;19.45;;;9.50;99.90;;;;;;5022775;28;20045;-48
2021/05/25 02:57:48;;;;;;;22.30;19.48;;;9.50;99.90;;;;;;5003993;28;20045;-51
2021/05/25 03:00:20;;;;;;;21.75;18.88;;;9.50;99.90;;;;;;5034414;28;20045;-49
2021/05/25 03:02:46;;;;;;;21.67;17.02;;;9.50;99.90;;;;;;5015992;28;20490;-52
2021/05/25 03:05:14;;;;;;;20.35;16.55;;;9.50;99.90;;;;;;5015818;28;20054;-52
2021/05/25 03:07:40;;;;;;;19.35;17.35;;;9.50;99.90;;;;;;5021906;28;20398;-49
2021/05/25 03:10:09;;;;;;;17.65;15.82;;;9.40;99.90;;;;;;5020254;28;20042;-50
2021/05/25 03:12:35;;;;;;;18.25;15.50;;;9.40;99.90;;;;;;5036868;28;20053;-49
2021/05/25 03:15:04;;;;;;;17.52;15.57;;;9.40;99.90;;;;;;5021168;28;20046;-52
2021/05/25 03:17:30;;;;;;;17.25;15.55;;;9.40;99.90;;;;;;5022212;28;20048;-52
2021/05/25 03:19:56;;;;;;;17.40;15.63;;;9.40;99.90;;;;;;5018506;28;20042;-49
2021/05/25 03:22:23;;;;;;;18.27;15.38;;;9.40;99.90;;;;;;5010879;28;20048;-48
2021/05/25 03:24:49;;;;;;;16.75;15.05;;;9.40;99.90;;;;;;5027838;28;20132;-51
2021/05/25 03:27:15;;;;;;;16.63;14.85;;;9.30;99.90;;;;;;5028102;28;20053;-50
2021/05/25 03:29:42;;;;;;;17.38;15.38;;;9.30;99.90;;;;;;5010152;28;20568;-52
2021/05/25 03:32:08;;;;;;;17.52;15.27;;;9.30;99.90;;;;;;5027518;28;20072;-50
2021/05/25 03:34:34;;;;;;;17.80;15.50;;;9.30;99.90;;;;;;5027518;28;20127;-51
2021/05/25 03:37:03;;;;;;;17.05;15.13;;;9.30;99.90;;;;;;5030713;28;20077;-53
2021/05/25 03:39:31;;;;;;;17.45;14.85;;;9.30;99.90;;;;;;5024980;28;20053;-49
2021/05/25 03:42:00;;;;;;;16.35;14.60;;;9.30;99.90;;;;;;5029367;28;20176;-52
2021/05/25 03:44:27;;;;;;;17.00;15.20;;;9.30;99.90;;;;;;5026302;28;20075;-54
2021/05/25 03:46:54;;;;;;;19.45;15.40;;;9.20;99.90;;;;;;5028145;28;20064;-51
2021/05/25 03:49:22;;;;;;;17.90;15.07;;;9.30;99.90;;;;;;5034117;28;20053;-49
2021/05/25 03:51:48;;;;;;;19.23;16.17;;;9.30;99.90;;;;;;5027430;28;20057;-50
2021/05/25 03:54:20;;;;;;;12.15;10.90;;;9.30;99.90;;;;;;5026689;28;20050;-50
2021/05/25 03:57:06;;;;;;;6.75;5.45;;;9.30;99.90;;;;;;5026348;28;20056;-50
2021/05/25 03:59:32;;;;;;;7.03;5.95;;;9.20;99.90;;;;;;5009032;28;20049;-49
2021/05/25 04:01:59;;;;;;;7.28;4.60;;;9.20;99.90;;;;;;5032780;28;20132;-50
2021/05/25 04:04:25;;;;;;;6.22;3.90;;;9.20;99.90;;;;;;5027252;28;20100;-49
2021/05/25 04:06:51;;;;;;;7.13;3.47;;;9.20;99.90;;;;;;5026796;28;20049;-49
2021/05/25 04:09:20;;;;;;;6.03;3.65;;;9.10;99.90;;;;;;5025618;28;20050;-50
2021/05/25 04:11:46;;;;;;;4.90;2.70;;;9.10;99.90;;;;;;5027078;28;20087;-49
2021/05/25 04:14:12;;;;;;;4.47;2.67;;;9.10;99.90;;;;;;5009152;28;20053;-50
2021/05/25 04:16:40;;;;;;;4.45;2.08;;;9.00;99.90;;;;;;5027545;28;20378;-50
2021/05/25 04:19:07;;;;;;;4.88;2.45;;;9.00;99.90;;;;;;5024577;28;20045;-48
2021/05/25 04:21:33;;;;;;;3.65;2.60;;;9.00;99.90;;;;;;5026759;28;20065;-51
2021/05/25 04:24:00;;;;;;;5.03;2.10;;;9.00;99.90;;;;;;5046323;28;20068;-48
2021/05/25 04:26:27;;;;;;;3.50;2.05;;;9.00;99.90;;;;;;5044102;28;20077;-50
2021/05/25 04:28:54;;;;;;;3.78;1.88;;;9.00;99.90;;;;;;5046822;28;20069;-49
2021/05/25 04:31:21;;;;;;;5.35;2.40;;;9.00;99.90;;;;;;5044144;28;21296;-53
2021/05/25 04:33:47;;;;;;;5.28;2.97;;;9.00;99.90;;;;;;5046679;28;20063;-53
2021/05/25 04:36:17;;;;;;;6.05;2.63;;;9.00;99.90;;;;;;5046825;28;20052;-51
2021/05/25 04:38:43;;;;;;;5.00;2.75;;;9.00;99.90;;;;;;5043571;28;20053;-50
2021/05/25 04:41:10;;;;;;;6.00;2.70;;;9.00;99.90;;;;;;5029218;28;20099;-49
2021/05/25 04:43:36;;;;;;;4.82;2.70;;;9.00;99.90;;;;;;5043521;28;20148;-47
2021/05/25 04:46:03;;;;;;;5.85;3.45;;;9.00;99.90;;;;;;5046244;28;20045;-49
2021/05/25 04:48:31;;;;;;;8.70;2.95;;;9.00;99.90;;;;;;5045844;28;20045;-50
2021/05/25 04:50:57;;;;;;;6.65;3.30;;;9.00;99.90;;;;;;5046292;28;20045;-50
2021/05/25 04:53:24;;;;;;;6.38;3.65;;;9.10;99.90;;;;;;5046438;28;20061;-47
2021/05/25 04:55:50;;;;;;;5.05;3.17;;;9.00;99.90;;;;;;5047175;28;20072;-49
2021/05/25 04:58:17;;;;;;;6.20;3.22;;;9.10;99.90;;;;;;5049971;28;20044;-48
2021/05/25 05:00:44;;;;;;;6.13;3.45;;;9.00;99.90;;;;;;5050020;28;20505;-47
2021/05/25 05:03:11;;;;;;;6.45;3.38;;;9.00;99.90;;;;;;5049946;28;20045;-50
2021/05/25 05:05:37;;;;;;;8.10;3.42;;;9.00;99.90;;;;;;5051506;28;20309;-48
2021/05/25 05:08:07;;;;;;;7.53;3.17;;;9.00;99.90;;;;;;5050111;28;20045;-45
2021/05/25 05:10:33;;;;;;;7.85;3.30;;;9.10;99.90;;;;;;5050410;28;20045;-46
2021/05/25 05:13:03;;;;;;;5.63;3.22;;;9.00;99.90;;;;;;5050681;28;20057;-46
2021/05/25 05:15:30;;;;;;;5.90;3.30;;;9.10;99.90;;;;;;5050018;28;20473;-47
2021/05/25 05:17:56;;;;;;;5.03;3.08;;;9.10;99.90;;;;;;5032191;28;20048;-49
2021/05/25 05:20:23;;;;;;;4.50;3.05;;;9.00;99.90;;;;;;5049824;28;20052;-50
2021/05/25 05:22:52;;;;;;;8.27;3.67;;;9.00;99.90;;;;;;5044821;28;20057;-49
2021/05/25 05:25:18;;;;;;;7.32;3.92;;;9.10;99.90;;;;;;5045203;28;20677;-45
2021/05/25 05:27:45;;;;;;;8.00;4.38;;;9.00;99.90;;;;;;5047607;28;20056;-46
2021/05/25 05:30:12;;;;;;;49.85;38.45;;;9.10;99.90;;;;;;5043117;28;20051;-51
2021/05/25 05:32:41;;;;;;;12.82;8.90;;;9.00;99.90;;;;;;5048962;28;20052;-46
2021/05/25 05:35:10;;;;;;;8.88;5.45;;;9.10;99.90;;;;;;5044308;28;20092;-49
2021/05/25 05:37:39;;;;;;;12.45;7.70;;;9.10;99.90;;;;;;5043815;28;20044;-47
2021/05/25 05:40:07;;;;;;;19.13;14.15;;;9.10;99.90;;;;;;5050051;28;20041;-49
2021/05/25 05:42:36;;;;;;;13.73;8.93;;;9.10;99.90;;;;;;5041594;28;20049;-50
2021/05/25 05:45:02;;;;;;;6.22;2.75;;;9.00;99.90;;;;;;5037429;28;20719;-49
2021/05/25 05:47:32;;;;;;;10.35;5.43;;;8.90;99.90;;;;;;5039862;28;20045;-51
2021/05/25 05:50:09;;;;;;;27.92;17.35;;;8.90;99.90;;;;;;5039482;28;20056;-47
2021/05/25 05:52:38;;;;;;;9.38;4.75;;;8.90;99.90;;;;;;5038949;28;20045;-47
2021/05/25 05:55:05;;;;;;;8.70;3.78;;;8.90;99.90;;;;;;5038999;28;20057;-49
2021/05/25 05:57:36;;;;;;;9.95;2.67;;;8.80;99.90;;;;;;5039739;28;20695;-48
2021/05/25 06:00:06;;;;;;;6.88;2.53;;;8.80;99.90;;;;;;5040291;28;20114;-50
2021/05/25 06:02:39;;;;;;;7.03;2.72;;;8.80;99.90;;;;;;5039063;28;20501;-47
2021/05/25 06:05:06;;;;;;;7.00;3.15;;;8.70;99.90;;;;;;5038444;28;20053;-48
2021/05/25 06:07:35;;;;;;;7.38;3.13;;;8.70;99.90;;;;;;5035162;28;20049;-51
2021/05/25 06:10:03;;;;;;;10.40;3.58;;;8.70;99.90;;;;;;5040590;28;20104;-48
2021/05/25 06:12:30;;;;;;;8.73;3.42;;;8.60;99.90;;;;;;5037224;28;20056;-49
2021/05/25 06:14:56;;;;;;;8.00;3.80;;;8.60;99.90;;;;;;5042217;28;20494;-47
2021/05/25 06:17:22;;;;;;;11.43;4.30;;;8.60;99.90;;;;;;5038985;28;20064;-49
2021/05/25 06:19:49;;;;;;;7.40;3.33;;;8.60;99.90;;;;;;5035388;28;20077;-46
2021/05/25 06:22:18;;;;;;;8.70;4.20;;;8.60;99.90;;;;;;5037445;28;20085;-45
2021/05/25 06:24:44;;;;;;;8.40;5.28;;;8.70;99.90;;;;;;5034742;28;20053;-48
2021/05/25 06:27:11;;;;;;;6.50;3.90;;;8.70;99.90;;;;;;5036683;28;20421;-57
2021/05/25 06:29:37;;;;;;;7.95;4.30;;;8.70;99.90;;;;;;5040234;28;20073;-49
2021/05/25 06:32:07;;;;;;;3.83;3.13;;;8.80;99.90;;;;;;5035682;28;20080;-45
2021/05/25 06:34:35;;;;;;;5.82;3.95;;;8.80;99.90;;;;;;5036603;28;20140;-52
2021/05/25 06:37:02;;;;;;;6.82;5.40;;;8.90;99.90;;;;;;5034468;28;20052;-49
2021/05/25 06:39:28;;;;;;;6.55;5.72;;;9.00;99.90;;;;;;5028998;28;20049;-48
2021/05/25 06:41:56;;;;;;;9.05;7.95;;;9.10;99.90;;;;;;5037664;28;20467;-45
2021/05/25 06:44:23;;;;;;;15.38;13.77;;;9.20;99.90;;;;;;5037887;28;20143;-46
2021/05/25 06:46:49;;;;;;;18.83;16.90;;;9.20;99.90;;;;;;5038328;28;20130;-45
2021/05/25 06:49:15;;;;;;;20.42;18.30;;;9.30;99.90;;;;;;5036798;28;20045;-46
2021/05/25 06:51:42;;;;;;;24.70;21.27;;;9.30;99.90;;;;;;5038813;28;20041;-47
2021/05/25 06:54:08;;;;;;;32.58;25.70;;;9.30;99.90;;;;;;5035729;28;20081;-48
2021/05/25 06:56:37;;;;;;;33.05;27.17;;;9.30;99.90;;;;;;5050042;28;20131;-47
2021/05/25 06:59:06;;;;;;;29.75;26.52;;;9.20;99.90;;;;;;5045896;28;20061;-46
2021/05/25 07:01:32;;;;;;;23.60;21.00;;;9.20;99.90;;;;;;5036607;28;20472;-46
2021/05/25 07:04:01;;;;;;;20.27;18.10;;;9.10;99.90;;;;;;5034838;28;20137;-45
2021/05/25 07:06:29;;;;;;;19.30;17.30;;;9.10;99.90;;;;;;5046032;28;20045;-45
2021/05/25 07:08:58;;;;;;;19.77;17.67;;;9.10;99.90;;;;;;5035581;28;20037;-45
2021/05/25 07:11:27;;;;;;;20.15;18.15;;;9.10;99.90;;;;;;5042876;28;20049;-46
2021/05/25 07:13:55;;;;;;;164.07;146.45;;;9.10;99.90;;;;;;5039009;28;20049;-50
2021/05/25 07:16:29;;;;;;;305.08;271.38;;;9.20;99.90;;;;;;5023099;28;20040;-48
2021/05/25 07:19:00;;;;;;;60.00;49.58;;;9.20;99.90;;;;;;5034799;28;20378;-52
2021/05/25 07:21:27;;;;;;;98.50;85.50;;;9.30;99.90;;;;;;5047144;28;20080;-53
2021/05/25 07:23:54;;;;;;;34.00;30.35;;;9.40;99.90;;;;;;5028367;28;20081;-51
2021/05/25 07:26:22;;;;;;;18.33;16.52;;;9.50;99.90;;;;;;5027257;28;20057;-51
2021/05/25 07:28:52;;;;;;;65.03;57.25;;;9.40;99.90;;;;;;5027643;28;20045;-51
2021/05/25 07:31:18;;;;;;;62.35;51.33;;;9.50;99.90;;;;;;5020850;28;20172;-48
2021/05/25 07:33:50;;;;;;;13.35;11.95;;;9.50;99.90;;;;;;5027227;28;20168;-46
2021/05/25 07:36:16;;;;;;;19.92;17.10;;;9.50;99.90;;;;;;5033501;28;20050;-49
2021/05/25 07:38:43;;;;;;;23.98;20.35;;;9.50;99.90;;;;;;5027711;28;20077;-52
2021/05/25 07:41:09;;;;;;;30.55;26.25;;;9.50;99.90;;;;;;5028197;28;20053;-48
2021/05/25 07:43:36;;;;;;;32.17;28.77;;;9.50;99.90;;;;;;5030001;28;20045;-48
2021/05/25 07:46:02;;;;;;;38.05;33.88;;;9.40;99.90;;;;;;5027998;28;20060;-52
2021/05/25 07:48:30;;;;;;;37.13;33.13;;;9.50;99.90;;;;;;5026196;28;20056;-50
2021/05/25 07:50:56;;;;;;;38.67;34.55;;;9.50;99.90;;;;;;5027376;28;20180;-49
2021/05/25 07:53:26;;;;;;;36.97;33.03;;;9.40;99.90;;;;;;5026648;28;20096;-53
2021/05/25 07:55:52;;;;;;;38.85;34.70;;;9.30;99.90;;;;;;5027017;28;20122;-48
2021/05/25 07:58:18;;;;;;;38.40;34.50;;;9.30;99.90;;;;;;4999965;28;20417;-50
2021/05/25 08:00:51;;;;;;;37.67;33.88;;;9.40;99.90;;;;;;5024064;28;20056;-47
2021/05/25 08:03:19;;;;;;;38.92;34.25;;;9.30;99.90;;;;;;5026634;28;20167;-53
2021/05/25 08:05:46;;;;;;;37.72;33.45;;;9.30;99.90;;;;;;5026608;28;20057;-50
2021/05/25 08:08:15;;;;;;;40.80;34.83;;;9.40;99.90;;;;;;5026751;28;20050;-52
2021/05/25 08:10:43;;;;;;;39.58;35.42;;;9.40;99.90;;;;;;5026409;28;20053;-47
2021/05/25 08:13:14;;;;;;;40.20;36.03;;;9.40;99.90;;;;;;5032832;28;20405;-50
2021/05/25 08:15:43;;;;;;;39.27;35.27;;;9.40;99.90;;;;;;5009107;28;20046;-52
2021/05/25 08:20:37;;;;;;;36.80;32.80;;;9.40;99.90;;;;;;5027636;28;20095;-47
2021/05/25 08:23:10;;;;;;;30.75;27.63;;;9.40;99.90;;;;;;5020968;28;20057;-50
2021/05/25 08:25:37;;;;;;;19.77;17.83;;;9.40;99.90;;;;;;5047968;28;20044;-48
2021/05/25 08:28:05;;;;;;;24.70;22.20;;;9.30;99.90;;;;;;5048302;28;20049;-50
2021/05/25 08:30:35;;;;;;;16.83;15.05;;;9.40;99.90;;;;;;5047023;28;20052;-52
2021/05/25 08:33:02;;;;;;;16.88;15.02;;;9.40;99.90;;;;;;5046716;28;20388;-50
2021/05/25 08:35:32;;;;;;;14.15;12.60;;;9.60;99.90;;;;;;5046327;28;20041;-50
2021/05/25 08:38:02;;;;;;;16.08;14.40;;;9.80;99.90;;;;;;5048711;28;20053;-50
2021/05/25 08:40:32;;;;;;;13.32;11.93;;;10.00;99.90;;;;;;5020352;28;20041;-51
2021/05/25 08:43:04;;;;;;;12.40;11.15;;;10.00;99.90;;;;;;5047175;28;20130;-50
2021/05/25 08:45:30;;;;;;;11.52;10.43;;;10.30;99.90;;;;;;5040717;28;20044;-50
2021/05/25 08:47:57;;;;;;;8.50;7.53;;;10.80;99.90;;;;;;5046142;28;20053;-49
2021/05/25 08:50:27;;;;;;;7.57;6.05;;;11.10;99.80;;;;;;5027213;28;21439;-49
2021/05/25 08:52:56;;;;;;;7.95;6.18;;;11.30;98.50;;;;;;5045816;28;20049;-51
2021/05/25 08:55:27;;;;;;;5.43;4.85;;;11.30;98.50;;;;;;5043710;28;20075;-52
2021/05/25 08:57:59;;;;;;;6.63;3.58;;;11.30;98.20;;;;;;5045032;28;20128;-50
2021/05/25 09:00:26;;;;;;;5.57;4.53;;;11.50;96.70;;;;;;5045765;28;20129;-49
2021/05/25 09:02:53;;;;;;;4.03;3.28;;;11.80;98.10;;;;;;5045719;28;20064;-51
2021/05/25 09:05:21;;;;;;;4.88;3.30;;;12.10;97.00;;;;;;5043607;28;20057;-49
2021/05/25 09:07:55;;;;;;;5.35;4.78;;;12.40;95.90;;;;;;5043127;28;20080;-52
2021/05/25 09:10:32;;;;;;;61.88;54.92;;;12.80;96.90;;;;;;5045909;28;20125;-51
2021/05/25 09:12:59;;;;;;;36.08;30.55;;;12.90;96.30;;;;;;5044041;28;20065;-50
2021/05/25 09:15:45;;;;;;;6.25;4.93;;;12.90;96.60;;;;;;5041175;28;20052;-51
2021/05/25 09:18:16;;;;;;;6.80;4.75;;;13.00;94.40;;;;;;5044212;28;20044;-48
2021/05/25 09:21:04;;;;;;;4.53;3.03;;;13.20;94.30;;;;;;5044260;28;20049;-54
2021/05/25 09:23:36;;;;;;;18.33;15.00;;;13.40;93.70;;;;;;5045154;28;20056;-50
2021/05/25 09:26:11;;;;;;;;;;;13.50;93.60;;;;;;5048639;28;20041;-54
2021/05/25 09:29:07;;;;;;;22.75;19.25;;;13.70;92.00;;;;;;5048683;28;19935;-51
2021/05/25 09:31:51;;;;;;;20.63;18.35;;;13.60;90.90;;;;;;5027865;28;20056;-48
2021/05/25 09:34:21;;;;;;;11.38;9.43;;;13.50;93.20;;;;;;5046142;28;20089;-51
2021/05/25 09:37:03;;;;;;;5.28;4.25;;;13.70;94.00;;;;;;5047484;28;20079;-53
2021/05/25 09:39:50;;;;;;;4.50;3.58;;;13.50;93.40;;;;;;5049783;28;20441;-50
2021/05/25 09:42:21;;;;;;;4.35;3.03;;;13.20;91.80;;;;;;5049271;28;20524;-51
2021/05/25 09:45:02;;;;;;;4.38;3.13;;;13.00;93.70;;;;;;5056614;28;20051;-50
2021/05/25 09:47:53;;;;;;;4.63;3.17;;;13.00;94.30;;;;;;5049878;28;20156;-51
2021/05/25 09:50:25;;;;;;;3.72;2.95;;;12.70;92.80;;;;;;5036061;28;20040;-48
2021/05/25 09:53:04;;;;;;;8.95;6.28;;;12.80;94.00;;;;;;5048815;28;20583;-48
2021/05/25 09:55:32;;;;;;;8.20;6.03;;;12.70;93.70;;;;;;5032269;28;20057;-48
2021/05/25 09:58:03;;;;;;;4.80;2.50;;;12.70;93.30;;;;;;5048936;28;20049;-51
2021/05/25 10:00:39;;;;;;;2.65;1.80;;;12.80;93.50;;;;;;5050306;28;20052;-52
2021/05/25 10:03:14;;;;;;;4.35;3.03;;;12.90;93.80;;;;;;5055389;28;20044;-55
2021/05/25 10:05:52;;;;;;;6.18;4.20;;;13.00;93.70;;;;;;5049110;28;20060;-52
2021/05/25 10:08:22;;;;;;;7.97;7.15;;;13.00;92.00;;;;;;5039388;28;20049;-48
2021/05/25 10:10:49;;;;;;;2.67;1.40;;;12.80;93.50;;;;;;5045332;28;20097;-52
2021/05/25 10:13:21;;;;;;;4.90;1.77;;;12.70;92.70;;;;;;5042096;28;20085;-49
2021/05/25 10:15:48;;;;;;;2.05;1.48;;;12.80;92.90;;;;;;5040833;28;20059;-52
2021/05/25 10:18:50;;;;;;;2.30;1.58;;;12.60;93.70;;;;;;5037710;28;20044;-49
2021/05/25 10:21:18;;;;;;;2.72;1.98;;;12.50;93.90;;;;;;5045174;28;20037;-51
2021/05/25 10:23:46;;;;;;;2.92;1.88;;;12.30;94.30;;;;;;5049960;28;20056;-47
2021/05/25 10:26:19;;;;;;;4.55;2.22;;;12.10;94.60;;;;;;5049011;28;20088;-45
2021/05/25 10:28:54;;;;;;;3.67;2.88;;;12.00;95.00;;;;;;5037250;28;20061;-49
2021/05/25 10:31:29;;;;;;;4.03;2.20;;;11.90;95.30;;;;;;5044702;28;20033;-48
2021/05/25 10:34:11;;;;;;;3.00;2.53;;;11.90;95.70;;;;;;5039403;28;20049;-48
2021/05/25 10:37:02;;;;;;;4.88;3.17;;;12.10;95.80;;;;;;5038578;28;20442;-50
2021/05/25 10:39:41;;;;;;;4.60;2.85;;;12.40;95.90;;;;;;5041232;28;20052;-50
2021/05/25 10:42:14;;;;;;;4.15;3.22;;;12.50;95.90;;;;;;5035735;28;20050;-52
2021/05/25 10:45:09;;;;;;;3.97;3.55;;;12.70;95.40;;;;;;5030811;28;20059;-48
2021/05/25 10:47:38;;;;;;;3.75;3.03;;;12.90;95.40;;;;;;5049111;28;20053;-50
2021/05/25 10:50:17;;;;;;;4.85;3.30;;;12.90;94.80;;;;;;5028295;28;20049;-45
2021/05/25 10:53:01;;;;;;;6.82;3.33;;;13.20;95.00;;;;;;5028564;28;20147;-48
2021/05/25 10:55:40;;;;;;;6.13;4.60;;;13.40;95.40;;;;;;5028945;28;20127;-52
2021/05/25 10:58:30;;;;;;;4.35;2.97;;;13.70;95.00;;;;;;5030501;28;20402;-49
2021/05/25 11:00:59;;;;;;;6.85;5.80;;;13.70;94.30;;;;;;5053686;28;20052;-48
2021/05/25 11:03:26;;;;;;;5.78;4.78;;;13.40;94.90;;;;;;5048588;28;20567;-47
2021/05/25 11:05:58;;;;;;;5.97;3.92;;;13.20;94.20;;;;;;5030301;28;20047;-48
2021/05/25 11:08:29;;;;;;;3.30;2.20;;;13.00;94.40;;;;;;5053428;28;20079;-46
2021/05/25 11:11:06;;;;;;;3.67;1.98;;;12.70;93.90;;;;;;5048688;28;20045;-46
2021/05/25 11:13:41;;;;;;;3.20;2.22;;;12.20;94.80;;;;;;5025724;28;20081;-50
2021/05/25 11:16:17;;;;;;;4.30;1.90;;;12.00;95.60;;;;;;5047373;28;20055;-51
2021/05/25 11:24:34;;;;;;;2.45;1.17;;;11.30;96.70;;;;;;5043376;28;20095;-51
2021/05/25 11:27:08;;;;;;;5.88;4.15;;;11.20;97.10;;;;;;5044188;28;20576;-49
2021/05/25 11:29:49;;;;;;;4.65;1.30;;;11.20;97.20;;;;;;5046734;28;20049;-50
2021/05/25 11:32:21;;;;;;;2.65;1.50;;;11.00;97.00;;;;;;5050466;28;20759;-49
2021/05/25 11:35:12;;;;;;;2.50;1.40;;;11.00;97.70;;;;;;5043285;28;20053;-51
2021/05/25 11:37:44;;;;;;;4.35;1.48;;;10.90;97.70;;;;;;5042603;28;20052;-53
2021/05/25 11:40:19;;;;;;;3.78;1.60;;;10.70;97.80;;;;;;5045018;28;20049;-51
2021/05/25 11:42:51;;;;;;;3.40;1.88;;;10.60;98.00;;;;;;5046237;28;20049;-50
2021/05/25 11:45:20;;;;;;;4.10;1.92;;;10.50;98.50;;;;;;5046987;28;20548;-49
2021/05/25 11:48:21;;;;;;;3.58;1.73;;;10.50;98.50;;;;;;5047234;28;20052;-51
2021/05/25 11:50:48;;;;;;;2.53;1.60;;;10.50;98.70;;;;;;5045112;28;20916;-49
2021/05/25 11:53:21;;;;;;;4.60;1.80;;;10.50;98.70;;;;;;5047921;28;20127;-53
2021/05/25 11:55:49;;;;;;;2.45;1.67;;;10.50;98.70;;;;;;5047811;28;20048;-51
2021/05/25 11:58:15;;;;;;;3.67;1.92;;;10.50;98.70;;;;;;5047410;28;20045;-52
2021/05/25 12:00:41;;;;;;;5.40;2.15;;;10.60;98.70;;;;;;5047228;28;20057;-50
2021/05/25 12:03:10;;;;;;;4.35;2.10;;;10.60;99.00;;;;;;5045757;28;20048;-54
2021/05/25 12:05:39;;;;;;;5.65;2.10;;;10.70;99.20;;;;;;5045783;28;20045;-52
2021/05/25 12:08:10;;;;;;;5.10;2.15;;;10.80;99.00;;;;;;5046358;28;20075;-50
2021/05/25 12:10:44;;;;;;;3.35;1.80;;;11.00;98.80;;;;;;5038609;28;20564;-52
2021/05/25 12:13:12;;;;;;;16.73;13.65;;;11.10;98.20;;;;;;5043521;28;20119;-50
2021/05/25 12:15:48;;;;;;;175.43;153.38;;;11.40;98.10;;;;;;5044444;28;20048;-54
2021/05/25 12:18:21;;;;;;;3.65;2.03;;;11.70;97.90;;;;;;5051131;28;20558;-56
2021/05/25 12:20:55;;;;;;;3.95;2.25;;;11.70;96.50;;;;;;5044242;28;20050;-57
2021/05/25 12:23:26;;;;;;;4.47;1.92;;;11.80;97.10;;;;;;5040120;28;20404;-56
2021/05/25 12:25:54;;;;;;;2.93;1.93;;;12.20;96.90;;;;;;5041812;28;20174;-56
2021/05/25 12:28:32;;;;;;;6.70;3.92;;;12.50;96.70;;;;;;5030754;28;20312;-58
2021/05/25 12:31:00;;;;;;;4.28;2.95;;;12.50;95.50;;;;;;5039777;28;20520;-58
2021/05/25 12:33:30;;;;;;;3.03;1.65;;;12.60;95.60;;;;;;5035318;28;20099;-58
2021/05/25 12:36:13;;;;;;;4.63;1.80;;;12.50;94.70;;;;;;5037730;28;20057;-59
2021/05/25 12:38:52;;;;;;;4.13;2.30;;;12.50;94.40;;;;;;5030533;28;20176;-55
2021/05/25 12:41:18;;;;;;;3.00;1.67;;;12.50;95.80;;;;;;5042369;28;20746;-56
2021/05/25 12:43:45;;;;;;;5.47;2.40;;;12.30;94.00;;;;;;5038613;28;20827;-57
2021/05/25 12:46:14;;;;;;;3.72;2.72;;;12.30;94.50;;;;;;5036117;28;20074;-56
2021/05/25 12:48:43;;;;;;;4.30;2.05;;;12.20;94.90;;;;;;5035496;28;20060;-56
2021/05/25 12:51:24;;;;;;;9.75;6.80;;;12.30;95.30;;;;;;5037537;28;20144;-55
2021/05/25 12:53:55;;;;;;;4.70;2.13;;;12.40;95.30;;;;;;5013632;28;20053;-56
2021/05/25 12:56:23;;;;;;;4.20;2.13;;;12.40;95.10;;;;;;5033524;28;20065;-55
2021/05/25 12:58:54;;;;;;;9.85;6.13;;;12.40;94.50;;;;;;5037608;28;20099;-52
2021/05/25 13:01:30;;;;;;;9.37;5.63;;;12.50;94.70;;;;;;5038182;28;20053;-53
2021/05/25 13:04:00;;;;;;;76.78;64.85;;;12.50;94.50;;;;;;5039939;28;20083;-55
2021/05/25 13:06:48;;;;;;;30.65;22.88;;;12.60;95.20;;;;;;5044038;28;20040;-53
2021/05/25 13:09:21;;;;;;;7.45;4.68;;;12.50;95.20;;;;;;5039663;28;20049;-56